Time;durP1;ratioP1;P1;durP2;ratioP2;P2;SDS_P1;SDS_P2;PMS_P1;PMS_P2;Temp;Humidity;BMP_temperature;BMP_pressure;BME280_temperature;BME280_humidity;BME280_pressure;Samples;Min_cycle;Max_cycle;Signal;HPM_P1;HPM_P2
2022/03/04 00:00:50;;;;;;;29.98;13.98;;;;;;;2.53;57.26;100245.25;5068253;28;20029;-88
2022/03/04 00:03:16;;;;;;;22.83;13.75;;;;;;;2.52;57.07;100243.63;5066551;28;20024;-89
2022/03/04 00:05:42;;;;;;;26.00;14.98;;;;;;;2.55;56.72;100243.19;5067063;28;20031;-89
2022/03/04 00:08:08;;;;;;;25.25;15.15;;;;;;;2.71;56.57;100242.03;5066968;28;20811;-88
2022/03/04 00:10:34;;;;;;;25.10;13.20;;;;;;;2.71;56.76;100249.25;5066615;28;20099;-86
2022/03/04 00:13:00;;;;;;;25.60;14.05;;;;;;;2.87;55.68;100242.69;5067605;28;20016;-88
2022/03/04 00:15:25;;;;;;;24.13;13.23;;;;;;;2.98;55.07;100241.31;5066235;28;20444;-86
2022/03/04 00:17:51;;;;;;;20.75;11.75;;;;;;;2.95;55.89;100241.72;5068246;28;20027;-89
2022/03/04 00:23:00;;;;;;;;;;;;;;;2.95;55.26;100256.00;5087365;28;20092;-89
2022/03/04 00:25:26;;;;;;;23.80;13.67;;;;;;;2.83;56.13;100254.94;5086547;28;19912;-85
2022/03/04 00:27:51;;;;;;;27.45;15.68;;;;;;;2.98;55.60;100249.38;5086927;28;20264;-88
2022/03/04 00:30:17;;;;;;;27.48;13.98;;;;;;;3.21;54.54;100245.50;5086795;28;20028;-87
2022/03/04 00:32:42;;;;;;;26.08;13.57;;;;;;;2.84;56.63;100260.13;5086449;28;20032;-85
2022/03/04 00:35:08;;;;;;;30.08;14.77;;;;;;;2.51;57.04;100263.47;5087621;28;20052;-88
2022/03/04 00:37:34;;;;;;;25.92;14.18;;;;;;;2.51;56.89;100263.47;5085770;28;20026;-86
2022/03/04 00:39:59;;;;;;;25.42;15.05;;;;;;;2.20;58.56;100269.09;5087565;28;20016;-86
2022/03/04 00:42:27;;;;;;;27.02;14.02;;;;;;;1.92;58.80;100269.91;5085823;28;20113;-88
2022/03/04 00:44:52;;;;;;;26.92;13.95;;;;;;;1.77;60.14;100274.56;5086908;28;20032;-89
2022/03/04 00:47:18;;;;;;;23.77;14.15;;;;;;;1.55;60.60;100271.88;5086729;28;20034;-87
2022/03/04 00:49:43;;;;;;;24.35;13.75;;;;;;;1.48;60.79;100271.81;5068836;28;20048;-86
2022/03/04 00:52:08;;;;;;;26.65;14.05;;;;;;;1.36;61.23;100272.31;5067484;28;20124;-87
2022/03/04 00:54:33;;;;;;;24.08;13.93;;;;;;;1.33;61.62;100285.31;5065810;28;20032;-86
2022/03/04 00:56:59;;;;;;;24.00;13.75;;;;;;;1.09;61.58;100285.47;5066869;28;20052;-87
2022/03/04 00:59:24;;;;;;;26.27;13.70;;;;;;;0.97;61.82;100276.22;5065990;28;20021;-87
2022/03/04 01:01:49;;;;;;;29.27;13.45;;;;;;;0.62;63.43;100279.50;5077018;28;20051;-87
2022/03/04 01:04:15;;;;;;;25.85;12.82;;;;;;;0.80;62.95;100279.97;5086431;28;20073;-88
2022/03/04 01:06:40;;;;;;;23.45;13.35;;;;;;;1.11;62.70;100277.22;5085895;28;20581;-88
2022/03/04 01:09:06;;;;;;;25.50;14.25;;;;;;;0.77;63.33;100274.94;5083847;28;20028;-87
2022/03/04 01:11:32;;;;;;;22.02;13.13;;;;;;;0.80;63.11;100277.28;5081113;28;20051;-89
2022/03/04 01:13:57;;;;;;;24.60;14.00;;;;;;;0.95;63.42;100278.28;5082926;28;20030;-89
2022/03/04 01:16:24;;;;;;;22.27;13.20;;;;;;;0.81;62.87;100275.44;5081341;28;20107;-87
2022/03/04 01:18:49;;;;;;;27.60;14.55;;;;;;;0.84;63.03;100282.25;5071590;28;20035;-85
2022/03/04 01:21:14;;;;;;;25.08;15.07;;;;;;;1.11;62.28;100279.91;5074696;28;20028;-88
2022/03/04 01:23:40;;;;;;;22.75;13.27;;;;;;;0.98;63.35;100269.81;5062534;28;20817;-86
2022/03/04 01:26:05;;;;;;;27.08;15.10;;;;;;;0.95;63.46;100271.06;5062100;28;20025;-86
2022/03/04 01:28:46;;;;;;;24.73;14.05;;;;;;;0.94;63.53;100272.06;5065445;28;20024;-86
2022/03/04 01:31:12;;;;;;;33.40;14.85;;;;;;;1.10;62.82;100275.56;5067446;28;20743;-87
2022/03/04 01:33:38;;;;;;;25.27;13.15;;;;;;;1.44;62.48;100268.69;5065380;28;20115;-87
2022/03/04 01:36:04;;;;;;;27.30;15.45;;;;;;;1.57;61.12;100269.81;5065728;28;20024;-87
2022/03/04 01:38:30;;;;;;;26.40;14.02;;;;;;;1.48;61.17;100264.59;5066041;28;20024;-86
2022/03/04 01:40:55;;;;;;;25.60;14.25;;;;;;;1.50;60.79;100265.25;5064849;28;20029;-87
2022/03/04 01:43:20;;;;;;;28.35;15.38;;;;;;;1.49;61.28;100266.25;5066393;28;20102;-87
2022/03/04 01:45:46;;;;;;;30.30;16.85;;;;;;;1.47;61.05;100270.97;5065840;28;20744;-87
2022/03/04 01:48:12;;;;;;;22.45;13.20;;;;;;;1.48;61.16;100283.41;5066248;28;20030;-87
2022/03/04 01:50:38;;;;;;;23.13;13.52;;;;;;;1.57;61.14;100269.81;5064620;28;20052;-87
2022/03/04 01:53:03;;;;;;;30.67;14.57;;;;;;;1.63;60.50;100269.88;5082354;28;20416;-87
2022/03/04 01:55:29;;;;;;;25.08;14.18;;;;;;;1.53;60.79;100268.56;5085946;28;20375;-86
2022/03/04 01:57:54;;;;;;;22.48;12.77;;;;;;;1.32;61.40;100267.53;5085008;28;20034;-85
2022/03/04 02:00:19;;;;;;;26.77;15.32;;;;;;;1.29;61.62;100268.72;5084652;28;20462;-86
2022/03/04 02:02:45;;;;;;;26.90;14.50;;;;;;;1.14;62.36;100258.84;5067198;28;20100;-88
2022/03/04 02:05:13;;;;;;;27.75;14.30;;;;;;;1.09;62.33;100263.97;5066232;28;20467;-87
2022/03/04 02:07:38;;;;;;;28.23;15.02;;;;;;;0.98;62.95;100267.97;5065620;28;20495;-87
2022/03/04 02:10:04;;;;;;;22.75;15.23;;;;;;;0.91;62.49;100267.09;5066321;28;20017;-88
2022/03/04 02:12:29;;;;;;;29.42;14.70;;;;;;;0.93;62.65;100267.72;5066921;28;20028;-87
2022/03/04 02:14:54;;;;;;;26.90;14.75;;;;;;;1.13;62.96;100270.63;5069590;28;20532;-87
2022/03/04 02:17:19;;;;;;;24.00;14.93;;;;;;;1.16;62.15;100269.41;5068143;28;20036;-87
2022/03/04 02:19:49;;;;;;;23.83;12.73;;;;;;;1.11;62.20;100261.94;5068650;28;20073;-86
2022/03/04 02:22:15;;;;;;;18.77;12.82;;;;;;;1.24;61.92;100263.91;5089649;28;20073;-87
2022/03/04 02:24:40;;;;;;;23.88;12.45;;;;;;;1.36;61.46;100258.06;5089159;28;20017;-87
2022/03/04 02:27:05;;;;;;;27.67;14.30;;;;;;;1.32;62.07;100256.78;5089770;28;20120;-86
2022/03/04 02:29:34;;;;;;;33.40;15.48;;;;;;;1.08;62.52;100256.94;5088459;28;20020;-87
2022/03/04 02:32:00;;;;;;;24.35;15.10;;;;;;;1.18;62.06;100251.25;5090235;28;20032;-87
2022/03/04 02:34:25;;;;;;;24.80;14.65;;;;;;;1.30;62.01;100258.81;5089004;28;20756;-88
2022/03/04 02:36:50;;;;;;;25.85;14.80;;;;;;;1.60;60.55;100250.63;5089593;28;20624;-88
2022/03/04 02:39:15;;;;;;;28.13;15.95;;;;;;;1.77;60.61;100243.09;5088780;28;20039;-88
2022/03/04 02:41:41;;;;;;;24.27;13.88;;;;;;;1.36;61.60;100250.81;5088563;28;20035;-87
2022/03/04 02:44:09;;;;;;;25.73;13.82;;;;;;;1.19;61.95;100250.25;5089694;28;20413;-88
2022/03/04 02:46:35;;;;;;;26.77;16.52;;;;;;;1.16;62.27;100242.53;5086871;28;20024;-88
2022/03/04 02:49:02;;;;;;;21.15;13.52;;;;;;;1.09;61.93;100247.88;5076048;28;20039;-87
2022/03/04 02:51:27;;;;;;;32.15;15.05;;;;;;;0.96;62.52;100253.91;5069999;28;20035;-88
2022/03/04 02:53:53;;;;;;;29.08;15.68;;;;;;;0.92;63.14;100248.09;5088797;28;20438;-86
2022/03/04 02:56:18;;;;;;;28.00;14.03;;;;;;;0.87;62.77;100255.06;5088471;28;20077;-87
2022/03/04 02:58:45;;;;;;;26.80;13.20;;;;;;;0.92;62.66;100253.47;5089730;28;20268;-87
2022/03/04 03:01:10;;;;;;;23.00;14.23;;;;;;;0.78;63.48;100262.38;5089395;28;20032;-87
2022/03/04 03:03:36;;;;;;;35.63;14.85;;;;;;;0.62;64.22;100260.72;5086425;28;20085;-87
2022/03/04 03:06:17;;;;;;;22.83;13.55;;;;;;;0.68;63.54;100257.28;5069618;28;20041;-87
2022/03/04 03:08:42;;;;;;;26.23;14.88;;;;;;;0.57;64.10;100261.31;5068409;28;20035;-87
2022/03/04 03:11:07;;;;;;;22.75;13.77;;;;;;;0.63;64.14;100254.34;5068392;28;20028;-87
2022/03/04 03:13:32;;;;;;;20.92;12.63;;;;;;;0.58;64.58;100258.44;5068533;28;20053;-88
2022/03/04 03:15:58;;;;;;;24.13;13.93;;;;;;;0.67;64.09;100255.66;5068294;28;20107;-88
2022/03/04 03:18:23;;;;;;;24.92;15.35;;;;;;;0.71;64.19;100253.41;5067951;28;20021;-87
2022/03/04 03:20:49;;;;;;;24.92;14.88;;;;;;;0.75;64.49;100252.84;5076575;28;20024;-87
2022/03/04 03:23:14;;;;;;;27.25;14.77;;;;;;;0.73;64.54;100260.28;5072264;28;20021;-88
2022/03/04 03:25:40;;;;;;;25.83;14.70;;;;;;;0.82;64.65;100260.97;5067362;28;20034;-89
2022/03/04 03:28:05;;;;;;;29.25;14.50;;;;;;;0.75;64.46;100257.38;5069014;28;20036;-87
2022/03/04 03:30:31;;;;;;;29.67;17.48;;;;;;;0.93;63.69;100257.00;5067423;28;20046;-88
2022/03/04 03:32:57;;;;;;;19.27;12.30;;;;;;;0.93;63.24;100262.34;5068252;28;20653;-87
2022/03/04 03:35:23;;;;;;;24.13;15.90;;;;;;;0.67;64.74;100253.78;5068253;28;20059;-87
2022/03/04 03:38:01;;;;;;;25.13;15.80;;;;;;;0.69;64.67;100251.72;5067498;28;20123;-87
2022/03/04 03:40:28;;;;;;;28.17;15.90;;;;;;;0.39;64.92;100253.59;5067661;28;20045;-88
2022/03/04 03:42:53;;;;;;;26.80;15.25;;;;;;;0.26;65.93;100249.72;5067898;28;20028;-87
2022/03/04 03:45:18;;;;;;;27.80;15.07;;;;;;;0.54;65.96;100257.13;5067921;28;20421;-88
2022/03/04 03:47:44;;;;;;;28.60;15.65;;;;;;;0.56;65.12;100262.31;5067153;28;20077;-87
2022/03/04 03:50:11;;;;;;;31.15;16.17;;;;;;;0.44;65.48;100253.88;5066614;28;20032;-88
2022/03/04 03:52:37;;;;;;;26.27;14.43;;;;;;;0.64;65.31;100256.84;5078125;28;20043;-87
2022/03/04 03:55:04;;;;;;;27.05;14.80;;;;;;;0.40;65.77;100266.00;5085480;28;20024;-87
2022/03/04 03:57:29;;;;;;;25.95;15.25;;;;;;;0.23;66.41;100264.34;5086643;28;20592;-87
2022/03/04 03:59:55;;;;;;;28.33;16.05;;;;;;;0.32;66.37;100254.38;5086966;28;20020;-87
2022/03/04 04:02:20;;;;;;;24.55;16.48;;;;;;;0.40;65.86;100264.16;5087362;28;20039;-87
2022/03/04 04:04:46;;;;;;;30.15;16.67;;;;;;;0.38;65.80;100268.88;5086238;28;20105;-86
2022/03/04 04:07:12;;;;;;;22.45;12.75;;;;;;;0.17;66.31;100261.53;5087771;28;20036;-86
2022/03/04 04:09:38;;;;;;;24.25;16.10;;;;;;;-0.06;67.19;100283.91;5087273;28;20429;-88
2022/03/04 04:12:04;;;;;;;30.95;15.23;;;;;;;0.00;67.30;100288.56;5087530;28;20046;-86
2022/03/04 04:14:29;;;;;;;28.73;15.77;;;;;;;-0.14;67.57;100288.31;5086645;28;20550;-87
2022/03/04 04:16:56;;;;;;;24.55;13.40;;;;;;;-0.06;67.94;100295.44;5086853;28;20111;-88
2022/03/04 04:19:22;;;;;;;28.90;15.45;;;;;;;0.10;67.53;100286.41;5071306;28;20086;-87
2022/03/04 04:21:47;;;;;;;29.45;16.23;;;;;;;0.14;66.74;100294.13;5083828;28;20020;-86
2022/03/04 04:24:12;;;;;;;23.70;14.32;;;;;;;0.03;67.43;100298.91;5071225;28;20055;-88
2022/03/04 04:26:38;;;;;;;26.27;14.85;;;;;;;0.40;66.23;100303.56;5066597;28;20052;-88
2022/03/04 04:29:03;;;;;;;25.02;13.27;;;;;;;0.10;66.84;100294.47;5065082;28;20107;-88
2022/03/04 04:31:31;;;;;;;26.45;15.93;;;;;;;-0.07;67.72;100295.63;5066552;28;20087;-87
2022/03/04 04:33:57;;;;;;;30.15;15.13;;;;;;;-0.13;68.06;100297.19;5066702;28;20388;-86
2022/03/04 04:36:22;;;;;;;27.13;14.50;;;;;;;-0.12;67.29;100299.69;5064841;28;20063;-87
2022/03/04 04:41:31;;;;;;;30.83;16.25;;;;;;;0.25;66.91;100300.88;5066565;28;20120;-87
2022/03/04 04:43:57;;;;;;;28.60;16.48;;;;;;;0.29;66.62;100292.28;5064881;28;20028;-87
2022/03/04 04:46:22;;;;;;;25.13;13.82;;;;;;;0.03;66.92;100293.53;5067064;28;20016;-87
2022/03/04 04:48:47;;;;;;;23.13;13.07;;;;;;;0.06;66.87;100289.66;5065525;28;20115;-86
2022/03/04 04:51:12;;;;;;;27.80;16.08;;;;;;;0.08;66.97;100284.94;5066533;28;20025;-87
2022/03/04 04:53:38;;;;;;;31.00;14.40;;;;;;;0.21;66.56;100284.31;5066649;28;20055;-87
2022/03/04 04:56:04;;;;;;;24.10;15.43;;;;;;;0.19;66.93;100287.19;5066042;28;20071;-87
2022/03/04 04:58:30;;;;;;;30.55;14.35;;;;;;;0.11;66.79;100272.00;5066911;28;20728;-88
2022/03/04 05:00:55;;;;;;;24.02;14.50;;;;;;;-0.04;67.47;100287.25;5065846;28;20032;-85
2022/03/04 05:03:24;;;;;;;27.63;14.68;;;;;;;-0.19;67.99;100284.50;5066866;28;20464;-87
2022/03/04 05:05:52;;;;;;;21.33;13.10;;;;;;;-0.25;67.72;100286.06;5065076;28;20029;-87
2022/03/04 05:11:20;;;;;;;31.20;16.60;;;;;;;-0.60;68.48;100284.66;5063035;28;20051;-88
2022/03/04 05:13:47;;;;;;;29.77;16.42;;;;;;;-0.61;68.97;100277.63;5066241;28;20115;-87
2022/03/04 05:16:13;;;;;;;24.48;13.65;;;;;;;-0.72;68.84;100286.06;5067328;28;20549;-87
2022/03/04 05:18:38;;;;;;;26.67;14.20;;;;;;;-0.74;69.45;100282.72;5066480;28;20032;-87
2022/03/04 05:21:03;;;;;;;27.70;15.82;;;;;;;-0.63;68.94;100287.66;5078050;28;20106;-86
2022/03/04 05:26:12;;;;;;;29.05;15.20;;;;;;;-0.67;69.72;100298.94;5065598;28;20469;-86
2022/03/04 05:28:38;;;;;;;27.70;15.55;;;;;;;-0.56;68.55;100297.69;5066720;28;20028;-87
2022/03/04 05:31:03;;;;;;;30.75;15.20;;;;;;;-0.52;69.26;100291.78;5064241;28;20028;-87
2022/03/04 05:33:28;;;;;;;29.98;14.32;;;;;;;-0.48;67.96;100297.63;5065815;28;20059;-89
2022/03/04 05:35:54;;;;;;;27.27;14.57;;;;;;;-0.67;68.53;100302.44;5064770;28;20033;-87
2022/03/04 05:38:19;;;;;;;24.40;13.77;;;;;;;-0.62;69.32;100299.22;5065951;28;20055;-86
2022/03/04 05:40:44;;;;;;;25.08;14.75;;;;;;;-0.60;68.07;100300.72;5065899;28;20036;-87
2022/03/04 05:43:10;;;;;;;30.33;15.65;;;;;;;-0.66;69.54;100309.47;5065842;28;20033;-88
2022/03/04 05:45:35;;;;;;;26.42;15.63;;;;;;;-0.42;68.62;100306.78;5066222;28;20035;-88
2022/03/04 05:48:00;;;;;;;28.65;14.75;;;;;;;-0.62;68.54;100310.78;5069406;28;20012;-88
2022/03/04 05:50:26;;;;;;;21.00;12.02;;;;;;;-0.56;68.67;100316.44;5067483;28;20031;-87
2022/03/04 05:52:51;;;;;;;31.33;16.10;;;;;;;-0.24;67.60;100325.25;5067794;28;20055;-87
2022/03/04 05:55:16;;;;;;;29.77;16.27;;;;;;;-0.23;67.71;100324.25;5067950;28;20824;-88
2022/03/04 05:57:42;;;;;;;23.48;13.82;;;;;;;-0.32;68.17;100327.97;5067702;28;20032;-87
2022/03/04 06:00:08;;;;;;;30.38;15.27;;;;;;;-0.60;68.13;100327.50;5069334;28;20025;-87
2022/03/04 06:02:33;;;;;;;25.50;14.65;;;;;;;-0.43;68.49;100332.78;5069737;28;20029;-87
2022/03/04 06:04:59;;;;;;;26.70;15.27;;;;;;;-0.44;68.16;100330.25;5069926;28;20031;-87
2022/03/04 06:07:24;;;;;;;24.52;14.15;;;;;;;-0.32;67.98;100339.53;5068693;28;20479;-88
2022/03/04 06:09:49;;;;;;;31.60;15.02;;;;;;;-0.37;67.53;100344.63;5068545;28;20033;-88
2022/03/04 06:12:15;;;;;;;28.70;14.10;;;;;;;-0.53;68.65;100340.19;5068157;28;20112;-88
2022/03/04 06:14:40;;;;;;;25.65;14.98;;;;;;;-0.57;68.21;100338.88;5066512;28;20442;-88
2022/03/04 06:17:05;;;;;;;27.38;14.27;;;;;;;-0.54;68.62;100333.16;5066348;28;20480;-88
2022/03/04 06:19:31;;;;;;;29.77;17.50;;;;;;;-0.63;68.92;100338.56;5065915;28;20031;-88
2022/03/04 06:21:56;;;;;;;28.48;15.68;;;;;;;-0.48;68.34;100343.16;5079431;28;20067;-87
2022/03/04 06:24:22;;;;;;;27.15;15.40;;;;;;;-0.14;67.42;100341.94;5065993;28;20024;-87
2022/03/04 06:26:47;;;;;;;29.13;15.93;;;;;;;-0.25;68.16;100345.03;5068666;28;20024;-88
2022/03/04 06:29:12;;;;;;;29.17;14.65;;;;;;;-0.20;67.47;100348.00;5069084;28;20142;-89
2022/03/04 06:31:37;;;;;;;26.60;14.90;;;;;;;0.04;67.32;100354.19;5068290;28;20162;-87
2022/03/04 06:34:03;;;;;;;20.92;13.00;;;;;;;0.15;66.84;100349.41;5066216;28;20041;-89
2022/03/04 06:36:28;;;;;;;25.33;14.68;;;;;;;0.02;67.41;100347.34;5066743;28;20602;-88
2022/03/04 06:38:54;;;;;;;29.98;16.17;;;;;;;-0.09;68.12;100348.59;5068976;28;20027;-89
2022/03/04 06:41:19;;;;;;;26.60;15.85;;;;;;;0.03;68.29;100357.88;5068682;28;20024;-88
2022/03/04 06:43:45;;;;;;;36.53;19.48;;;;;;;0.15;67.81;100360.13;5067704;28;20025;-87
2022/03/04 06:46:44;;;;;;;24.45;13.75;;;;;;;0.10;67.47;100361.50;5067619;28;20361;-89
2022/03/04 06:49:12;;;;;;;24.20;15.50;;;;;;;0.10;67.56;100363.38;5011277;28;20033;-89
2022/03/04 06:51:38;;;;;;;38.70;17.48;;;;;;;0.31;67.36;100360.00;5066847;28;20041;-87
2022/03/04 06:54:04;;;;;;;26.67;16.95;;;;;;;0.41;66.90;100365.09;5067098;28;20016;-86
2022/03/04 06:56:29;;;;;;;29.40;14.73;;;;;;;0.28;67.28;100367.56;5065724;28;20472;-88
2022/03/04 06:58:54;;;;;;;30.02;15.93;;;;;;;0.20;67.12;100373.84;5062520;28;20036;-87
2022/03/04 07:01:21;;;;;;;30.50;16.60;;;;;;;0.27;67.22;100379.31;5063158;28;20036;-88
2022/03/04 07:03:46;;;;;;;31.20;15.43;;;;;;;0.49;66.40;100379.47;5063979;28;20288;-89
2022/03/04 07:06:12;;;;;;;30.05;15.60;;;;;;;0.65;66.23;100371.22;5063317;28;20056;-89
2022/03/04 07:08:37;;;;;;;26.73;15.43;;;;;;;0.61;66.07;100385.22;5063392;28;20016;-89
2022/03/04 07:11:03;;;;;;;28.35;16.08;;;;;;;0.69;66.22;100390.50;5063874;28;20029;-90
2022/03/04 07:13:29;;;;;;;27.73;17.20;;;;;;;0.57;66.45;100388.25;5062820;28;20024;-91
2022/03/04 07:15:55;;;;;;;32.03;16.88;;;;;;;0.40;67.19;100394.78;5063529;28;20025;-90
2022/03/04 07:18:20;;;;;;;27.45;17.00;;;;;;;0.53;66.87;100400.38;5063305;28;20380;-89
2022/03/04 07:20:45;;;;;;;28.10;15.73;;;;;;;0.63;67.04;100404.66;5072092;28;20016;-92
2022/03/04 07:23:11;;;;;;;32.83;15.20;;;;;;;0.81;66.52;100404.31;5067100;28;20131;-87
2022/03/04 07:25:36;;;;;;;34.38;15.80;;;;;;;0.72;66.86;100411.59;5063337;28;20372;-87
2022/03/04 07:28:02;;;;;;;29.85;17.08;;;;;;;0.65;67.22;100408.00;5062036;28;20047;-88
2022/03/04 07:30:27;;;;;;;40.95;16.20;;;;;;;0.77;67.32;100406.50;5062642;28;20036;-87
2022/03/04 07:32:53;;;;;;;45.58;18.90;;;;;;;1.24;66.02;100400.13;5063533;28;20094;-87
2022/03/04 07:35:18;;;;;;;30.02;17.88;;;;;;;0.92;66.43;100408.38;5064566;28;20106;-87
2022/03/04 07:37:44;;;;;;;30.42;18.15;;;;;;;1.01;66.55;100409.13;5062957;28;20028;-87
2022/03/04 07:40:14;;;;;;;25.83;16.33;;;;;;;0.85;67.01;100412.81;5061574;28;20024;-87
2022/03/04 07:42:40;;;;;;;25.17;14.48;;;;;;;1.02;65.67;100408.94;5061634;28;20406;-88
2022/03/04 07:45:08;;;;;;;38.20;15.98;;;;;;;0.99;66.01;100408.47;5062491;28;20052;-87
2022/03/04 07:47:34;;;;;;;34.42;16.08;;;;;;;1.03;65.24;100405.25;5062391;28;20117;-88
2022/03/04 07:49:59;;;;;;;38.10;17.63;;;;;;;1.06;65.86;100424.69;5060771;28;20059;-88
2022/03/04 07:52:31;;;;;;;24.77;15.23;;;;;;;1.18;65.70;100422.38;5062251;28;20043;-87
2022/03/04 07:55:00;;;;;;;37.63;16.40;;;;;;;1.31;65.22;100411.78;5061538;28;20033;-87
2022/03/04 07:57:25;;;;;;;26.35;16.42;;;;;;;1.23;65.60;100411.88;5059564;28;20388;-85
2022/03/04 07:59:51;;;;;;;29.00;14.52;;;;;;;1.45;64.83;100418.16;5061339;28;20177;-93
2022/03/04 08:02:16;;;;;;;25.15;16.48;;;;;;;1.49;64.57;100418.59;5062075;28;20106;-92
2022/03/04 08:04:41;;;;;;;31.17;17.83;;;;;;;1.56;64.00;100405.25;5062949;28;20316;-93
2022/03/04 08:07:07;;;;;;;25.93;14.77;;;;;;;1.58;64.21;100404.06;5064007;28;20339;-95
2022/03/04 08:09:32;;;;;;;26.85;15.68;;;;;;;1.73;64.15;100408.53;5063965;28;20607;-96
2022/03/04 08:11:58;;;;;;;35.08;17.92;;;;;;;1.82;63.86;100411.94;5062249;28;20190;-93
2022/03/04 08:14:23;;;;;;;32.05;18.83;;;;;;;1.67;64.50;100410.13;5062463;28;20016;-86
2022/03/04 08:19:50;;;;;;;46.47;22.58;;;;;;;2.15;61.93;100413.31;5050988;28;20037;-88
2022/03/04 08:22:15;;;;;;;48.03;23.23;;;;;;;2.20;62.58;100413.56;5074424;28;20495;-88
2022/03/04 08:24:40;;;;;;;47.38;21.70;;;;;;;2.18;62.08;100419.13;5062345;28;20029;-87
2022/03/04 08:27:06;;;;;;;40.88;20.45;;;;;;;2.55;61.81;100418.19;5062276;28;20020;-89
2022/03/04 08:29:31;;;;;;;34.30;18.38;;;;;;;2.56;61.68;100428.75;5062336;28;20051;-88
2022/03/04 08:31:56;;;;;;;31.38;18.63;;;;;;;2.70;60.55;100422.66;5063829;28;20077;-88
2022/03/04 08:34:21;;;;;;;28.75;16.23;;;;;;;2.74;61.08;100418.53;5066411;28;20045;-88
2022/03/04 08:36:49;;;;;;;29.95;16.58;;;;;;;2.78;61.18;100428.75;5067342;28;20535;-91
2022/03/04 08:39:15;;;;;;;30.67;14.48;;;;;;;2.82;59.85;100415.69;5063967;28;20033;-90
2022/03/04 08:41:42;;;;;;;28.55;16.80;;;;;;;2.93;59.54;100422.38;5061450;28;20044;-91
2022/03/04 08:44:08;;;;;;;35.83;16.20;;;;;;;2.85;60.98;100425.25;5061093;28;20044;-91
2022/03/04 08:46:34;;;;;;;33.45;17.08;;;;;;;2.82;60.39;100421.09;5062039;28;20030;-92
2022/03/04 08:48:59;;;;;;;34.65;17.70;;;;;;;2.74;59.91;100424.78;5060956;28;20029;-91
2022/03/04 08:51:26;;;;;;;32.65;16.20;;;;;;;2.91;59.67;100425.28;5078651;28;20032;-92
2022/03/04 08:53:55;;;;;;;31.27;16.70;;;;;;;2.82;59.75;100428.34;5082444;28;20024;-91
2022/03/04 08:56:21;;;;;;;30.08;17.55;;;;;;;2.86;60.31;100427.75;5081480;28;20122;-86
2022/03/04 08:58:47;;;;;;;31.48;19.20;;;;;;;2.77;61.03;100432.44;5057467;28;20039;-86
2022/03/04 09:01:12;;;;;;;35.95;17.58;;;;;;;2.81;60.43;100435.56;5058998;28;20036;-87
2022/03/04 09:03:37;;;;;;;31.40;17.38;;;;;;;2.97;59.59;100429.03;5060500;28;20031;-88
2022/03/04 09:06:03;;;;;;;34.15;16.15;;;;;;;3.03;60.00;100414.78;5060807;28;20087;-94
2022/03/04 09:08:28;;;;;;;27.98;14.98;;;;;;;3.09;60.27;100413.16;5061543;28;20032;-91
2022/03/04 09:10:54;;;;;;;29.23;16.13;;;;;;;3.15;59.20;100425.84;5061922;28;20298;-94
2022/03/04 09:13:19;;;;;;;23.13;13.10;;;;;;;3.02;59.54;100415.00;5061543;28;20027;-90
2022/03/04 09:18:31;;;;;;;29.38;16.15;;;;;;;3.12;59.51;100414.63;5057746;28;20124;-90
2022/03/04 09:20:57;;;;;;;31.05;16.33;;;;;;;3.09;59.93;100412.34;5071697;28;20047;-90
2022/03/04 09:23:22;;;;;;;30.20;15.10;;;;;;;3.22;58.91;100415.09;5067387;28;20039;-88
2022/03/04 09:25:48;;;;;;;32.63;18.25;;;;;;;3.35;59.01;100402.72;5065565;28;20460;-88
2022/03/04 09:28:15;;;;;;;35.88;17.13;;;;;;;3.11;60.35;100419.16;5065383;28;20501;-85
2022/03/04 09:30:41;;;;;;;48.88;18.70;;;;;;;3.36;59.20;100413.28;5066148;28;20047;-88
2022/03/04 09:33:06;;;;;;;27.73;15.77;;;;;;;3.44;59.20;100404.19;5063606;28;20056;-85
2022/03/04 09:35:31;;;;;;;31.92;16.48;;;;;;;3.53;59.18;100412.94;5064872;28;20036;-88
2022/03/04 09:37:56;;;;;;;31.55;17.38;;;;;;;3.53;59.67;100404.84;5064751;28;20387;-87
2022/03/04 09:40:22;;;;;;;28.55;15.25;;;;;;;3.60;58.61;100408.41;5064479;28;20028;-89
2022/03/04 09:42:47;;;;;;;37.40;15.65;;;;;;;3.60;58.90;100407.59;5064059;28;20039;-88
2022/03/04 09:45:13;;;;;;;27.45;16.13;;;;;;;3.52;59.74;100419.34;5062493;28;20033;-85
2022/03/04 09:47:40;;;;;;;31.80;17.20;;;;;;;3.70;58.50;100409.91;5065300;28;20029;-88
2022/03/04 09:50:06;;;;;;;31.50;16.52;;;;;;;3.65;59.08;100409.66;5065032;28;20027;-85
2022/03/04 09:52:32;;;;;;;31.75;16.65;;;;;;;3.58;59.19;100410.47;5064703;28;20625;-87
2022/03/04 09:54:58;;;;;;;33.47;16.92;;;;;;;3.76;58.85;100411.78;5064171;28;20020;-90
2022/03/04 09:57:24;;;;;;;30.65;15.98;;;;;;;3.61;59.13;100406.53;5063876;28;20039;-81
2022/03/04 09:59:52;;;;;;;28.10;15.32;;;;;;;3.76;58.21;100414.47;5058881;28;20484;-84
2022/03/04 10:02:18;;;;;;;32.08;15.13;;;;;;;3.93;58.63;100411.38;5045199;28;20042;-90
2022/03/04 10:04:44;;;;;;;28.63;15.52;;;;;;;3.93;58.54;100408.69;5044735;28;20029;-89
2022/03/04 10:07:14;;;;;;;33.80;16.40;;;;;;;4.03;58.35;100414.53;5044351;28;20029;-91
2022/03/04 10:13:02;;;;;;;26.70;13.55;;;;;;;4.13;59.19;100414.13;5063599;28;20047;-95
2022/03/04 10:15:27;;;;;;;25.35;14.30;;;;;;;4.07;58.38;100409.53;5062354;28;20028;-93
2022/03/04 10:18:03;;;;;;;31.10;17.08;;;;;;;4.16;58.24;100412.88;5064238;28;20028;-90
2022/03/04 10:20:40;;;;;;;31.10;14.57;;;;;;;4.36;57.99;100406.66;5073192;28;20084;-90
2022/03/04 10:23:21;;;;;;;25.90;15.23;;;;;;;4.44;57.20;100409.16;5074493;28;20056;-86
2022/03/04 10:25:49;;;;;;;30.27;16.75;;;;;;;4.41;57.69;100409.59;5068639;28;20115;-87
2022/03/04 10:28:15;;;;;;;29.02;16.75;;;;;;;4.60;57.56;100407.06;5068984;28;20043;-85
2022/03/04 10:30:46;;;;;;;22.27;14.52;;;;;;;4.70;57.65;100391.25;5069243;28;20466;-86
2022/03/04 10:33:20;;;;;;;38.72;19.05;;;;;;;4.76;57.27;100395.81;5065716;28;20053;-84
2022/03/04 10:35:47;;;;;;;;;;;;;;;4.76;57.17;100405.81;5063838;28;20028;-84
2022/03/04 10:38:21;;;;;;;31.10;17.67;;;;;;;4.76;56.50;100398.53;5063088;28;19912;-82
2022/03/04 10:40:48;;;;;;;31.02;17.17;;;;;;;4.83;56.93;100395.81;5063118;28;20120;-81
2022/03/04 10:43:16;;;;;;;28.05;15.77;;;;;;;4.80;57.15;100390.81;5063920;28;20041;-85
2022/03/04 10:45:43;;;;;;;23.20;12.88;;;;;;;4.90;56.77;100398.53;5061580;28;20039;-84
2022/03/04 10:48:10;;;;;;;27.42;14.90;;;;;;;4.90;56.22;100390.41;5060148;28;20036;-87
2022/03/04 10:50:44;;;;;;;26.05;15.25;;;;;;;5.12;57.10;100387.44;5043288;28;20033;-88
2022/03/04 10:53:16;;;;;;;;;;;;;;;5.15;55.94;100400.50;5048492;28;20057;-88
2022/03/04 10:55:47;;;;;;;28.52;15.35;;;;;;;5.28;55.81;100393.41;5046186;28;20052;-86
2022/03/04 10:58:19;;;;;;;28.92;15.85;;;;;;;5.45;55.85;100394.56;5047333;28;20025;-85
2022/03/04 11:00:46;;;;;;;26.40;14.18;;;;;;;5.39;55.88;100384.63;5047476;28;20013;-89
2022/03/04 11:03:20;;;;;;;27.15;13.65;;;;;;;5.36;55.75;100395.88;5048939;28;20052;-89
2022/03/04 11:05:46;;;;;;;26.55;14.57;;;;;;;5.51;55.02;100389.38;5046728;28;20028;-86
2022/03/04 11:08:11;;;;;;;24.25;15.02;;;;;;;5.48;54.58;100391.47;5047998;28;20017;-84
2022/03/04 11:10:36;;;;;;;35.05;16.55;;;;;;;5.59;54.95;100386.41;5061655;28;20017;-80
2022/03/04 11:13:07;;;;;;;27.35;16.85;;;;;;;5.64;54.91;100391.16;5047194;28;20106;-88
2022/03/04 11:15:34;;;;;;;30.25;16.15;;;;;;;5.88;55.15;100389.56;5044476;28;20045;-89
2022/03/04 11:18:06;;;;;;;32.05;14.88;;;;;;;5.90;54.89;100389.38;5047717;28;20025;-87
2022/03/04 11:20:32;;;;;;;23.25;14.23;;;;;;;5.86;54.36;100394.38;5063150;28;20024;-85
2022/03/04 11:22:58;;;;;;;27.25;14.35;;;;;;;5.93;52.53;100391.63;5062555;28;20101;-83
2022/03/04 11:25:23;;;;;;;24.67;13.30;;;;;;;6.03;53.13;100383.03;5061920;28;20028;-82
2022/03/04 11:27:52;;;;;;;28.00;15.00;;;;;;;6.25;53.35;100382.69;5061468;28;20028;-82
2022/03/04 11:30:45;;;;;;;25.48;13.57;;;;;;;6.18;54.03;100380.03;5061737;28;20353;-84
2022/03/04 11:33:13;;;;;;;38.10;13.80;;;;;;;6.29;53.16;100371.19;5060599;28;20601;-83